Time;durP1;ratioP1;P1;durP2;ratioP2;P2;SDS_P1;SDS_P2;PMS_P1;PMS_P2;Temp;Humidity;BMP_temperature;BMP_pressure;BME280_temperature;BME280_humidity;BME280_pressure;Samples;Min_cycle;Max_cycle;Signal;HPM_P1;HPM_P2
2021/12/09 00:00:37;;;;;;;11.02;3.20;;;;;;;6.39;100.00;98462.22;4994598;28;20054;-86
2021/12/09 00:03:07;;;;;;;11.10;2.53;;;;;;;6.16;100.00;98442.72;4976312;28;20054;-87
2021/12/09 00:05:36;;;;;;;13.88;2.35;;;;;;;6.25;100.00;98432.66;4979268;28;21622;-87
2021/12/09 00:08:04;;;;;;;9.95;2.42;;;;;;;6.11;100.00;98452.53;4995567;28;20494;-87
2021/12/09 00:10:32;;;;;;;9.00;2.00;;;;;;;6.31;100.00;98469.63;4994454;28;20050;-87
2021/12/09 00:12:58;;;;;;;6.57;2.05;;;;;;;6.20;100.00;98449.44;4978969;28;20084;-87
2021/12/09 00:15:25;;;;;;;18.83;4.95;;;;;;;6.24;100.00;98456.13;4994252;28;20054;-86
2021/12/09 00:17:52;;;;;;;17.33;3.20;;;;;;;6.16;100.00;98466.09;5002189;28;20041;-86
2021/12/09 00:20:19;;;;;;;10.63;2.60;;;;;;;6.07;100.00;98467.44;4996620;28;20046;-86
2021/12/09 00:22:46;;;;;;;9.82;2.85;;;;;;;6.00;100.00;98481.69;4978317;28;20058;-86
2021/12/09 00:25:14;;;;;;;15.52;4.55;;;;;;;6.38;100.00;98483.94;4976564;28;20046;-86
2021/12/09 00:27:42;;;;;;;9.75;2.97;;;;;;;6.34;100.00;98492.81;4993764;28;20046;-86
2021/12/09 00:30:11;;;;;;;11.45;3.22;;;;;;;6.06;100.00;98478.78;4996108;28;20424;-86
2021/12/09 00:32:39;;;;;;;11.70;3.55;;;;;;;5.98;100.00;98465.38;4983224;28;20061;-87
2021/12/09 00:35:08;;;;;;;15.73;3.75;;;;;;;6.17;100.00;98473.81;4991072;28;20119;-87
2021/12/09 00:40:03;;;;;;;11.45;3.45;;;;;;;6.36;100.00;98475.41;5013671;28;20060;-87
2021/12/09 00:42:30;;;;;;;12.88;2.47;;;;;;;6.44;100.00;98474.00;4984271;28;20058;-87
2021/12/09 00:44:57;;;;;;;11.18;2.83;;;;;;;6.35;100.00;98468.50;4994503;28;20050;-87
2021/12/09 00:47:24;;;;;;;14.15;3.67;;;;;;;6.08;100.00;98448.34;4985388;28;20068;-86
2021/12/09 00:49:55;;;;;;;20.05;3.63;;;;;;;6.60;100.00;98484.38;4994705;28;20046;-87
2021/12/09 00:52:24;;;;;;;10.38;3.38;;;;;;;6.37;100.00;98497.84;4989194;28;20052;-87
2021/12/09 00:54:52;;;;;;;12.15;2.70;;;;;;;5.98;100.00;98474.00;4982596;28;20455;-87
2021/12/09 00:57:19;;;;;;;10.88;2.78;;;;;;;6.25;100.00;98484.63;5009591;28;20050;-87
2021/12/09 00:59:46;;;;;;;9.45;2.97;;;;;;;6.04;100.00;98460.69;4993436;28;20049;-87
2021/12/09 01:02:13;;;;;;;7.07;2.15;;;;;;;6.26;100.00;98501.06;5004045;28;20068;-87
2021/12/09 01:04:41;;;;;;;8.57;2.60;;;;;;;6.21;100.00;98490.06;4995565;28;20056;-87
2021/12/09 01:07:08;;;;;;;8.65;2.25;;;;;;;6.06;100.00;98487.41;4995438;28;20628;-86
2021/12/09 01:09:35;;;;;;;10.20;2.90;;;;;;;6.16;100.00;98494.69;5012898;28;20519;-87
2021/12/09 01:12:04;;;;;;;11.13;2.55;;;;;;;6.30;100.00;98509.50;4988443;28;20133;-87
2021/12/09 01:14:31;;;;;;;16.02;3.08;;;;;;;6.21;100.00;98508.25;5010894;28;20050;-87
2021/12/09 01:16:58;;;;;;;8.40;2.50;;;;;;;6.49;100.00;98517.97;5007734;28;20046;-87
2021/12/09 01:19:25;;;;;;;11.88;2.30;;;;;;;6.23;100.00;98511.59;4995417;28;20404;-87
2021/12/09 01:21:52;;;;;;;11.93;2.47;;;;;;;6.25;100.00;98499.38;4992394;28;20049;-86
2021/12/09 01:24:19;;;;;;;6.22;2.00;;;;;;;6.34;100.00;98503.22;5009068;28;20046;-87
2021/12/09 01:26:48;;;;;;;8.93;2.35;;;;;;;6.26;100.00;98482.88;4994622;28;20046;-86
2021/12/09 01:29:19;;;;;;;10.45;2.65;;;;;;;6.27;100.00;98506.16;4994082;28;20527;-86
2021/12/09 01:31:56;;;;;;;10.95;2.55;;;;;;;6.24;100.00;98485.53;4991269;28;20054;-86
2021/12/09 01:34:23;;;;;;;7.65;2.15;;;;;;;6.20;100.00;98499.63;4994847;28;20411;-86
2021/12/09 01:36:50;;;;;;;7.00;2.40;;;;;;;6.10;100.00;98498.47;4994674;28;20050;-86
2021/12/09 01:39:18;;;;;;;6.47;2.38;;;;;;;6.18;100.00;98511.88;4991931;28;20061;-87
2021/12/09 01:41:45;;;;;;;9.05;2.00;;;;;;;6.35;100.00;98523.94;4993827;28;20058;-87
2021/12/09 01:44:12;;;;;;;5.82;1.70;;;;;;;6.32;100.00;98515.47;4992803;28;20049;-87
2021/12/09 01:46:39;;;;;;;10.73;2.42;;;;;;;6.26;100.00;98508.84;4995334;28;20124;-87
2021/12/09 01:49:07;;;;;;;7.03;2.55;;;;;;;6.29;100.00;98519.09;4994856;28;20498;-86
2021/12/09 01:51:34;;;;;;;7.18;2.30;;;;;;;6.05;100.00;98493.50;4986608;28;20058;-86
2021/12/09 01:54:01;;;;;;;8.50;2.30;;;;;;;6.09;100.00;98525.34;4976366;28;20477;-87
2021/12/09 01:56:28;;;;;;;7.70;1.95;;;;;;;6.14;100.00;98525.13;5012096;28;20141;-86
2021/12/09 01:59:01;;;;;;;10.70;1.88;;;;;;;6.19;100.00;98534.31;4993881;28;20056;-87
2021/12/09 02:01:29;;;;;;;6.80;2.67;;;;;;;6.05;100.00;98539.44;4986302;28;20050;-86
2021/12/09 02:03:57;;;;;;;9.18;2.20;;;;;;;5.96;100.00;98517.41;4994955;28;20056;-87
2021/12/09 02:06:26;;;;;;;8.80;1.95;;;;;;;6.16;100.00;98542.31;4994587;28;20495;-87
2021/12/09 02:08:53;;;;;;;9.27;1.85;;;;;;;5.88;100.00;98520.38;4994865;28;20124;-86
2021/12/09 02:11:21;;;;;;;7.25;1.80;;;;;;;6.03;100.00;98533.50;5010824;28;20054;-86
2021/12/09 02:13:51;;;;;;;10.73;2.20;;;;;;;5.92;100.00;98539.25;4981934;28;20489;-86
2021/12/09 02:16:20;;;;;;;4.15;1.75;;;;;;;5.86;100.00;98505.78;4974661;28;20145;-87
2021/12/09 02:18:47;;;;;;;5.50;1.50;;;;;;;5.78;100.00;98489.81;4989984;28;20543;-86
2021/12/09 02:21:16;;;;;;;7.80;2.13;;;;;;;6.16;100.00;98531.06;4984698;28;20495;-87
2021/12/09 02:23:50;;;;;;;8.43;2.15;;;;;;;6.02;100.00;98522.28;4978165;28;20064;-87
2021/12/09 02:26:19;;;;;;;3.05;1.20;;;;;;;6.07;100.00;98529.81;4998352;28;20057;-87
2021/12/09 02:28:50;;;;;;;4.40;1.35;;;;;;;6.11;100.00;98535.66;4997849;28;20046;-86
2021/12/09 02:31:17;;;;;;;7.15;2.00;;;;;;;6.03;100.00;98530.91;5003813;28;20477;-87
2021/12/09 02:33:43;;;;;;;10.23;1.92;;;;;;;5.93;100.00;98517.53;4979271;28;20515;-87
2021/12/09 02:36:10;;;;;;;5.75;1.52;;;;;;;5.80;100.00;98493.16;4978564;28;20046;-87
2021/12/09 02:38:43;;;;;;;7.53;1.70;;;;;;;5.97;100.00;98533.84;4992202;28;20053;-86
2021/12/09 02:41:28;;;;;;;6.45;1.75;;;;;;;5.87;100.00;98505.72;5011365;28;20064;-86
2021/12/09 02:44:00;;;;;;;7.05;1.60;;;;;;;5.89;100.00;98508.22;4986551;28;20064;-86
2021/12/09 02:46:28;;;;;;;10.73;2.10;;;;;;;5.74;100.00;98511.63;4997961;28;20136;-86
2021/12/09 02:48:55;;;;;;;8.77;2.35;;;;;;;6.00;100.00;98542.31;4996091;28;20046;-86
2021/12/09 02:51:22;;;;;;;4.63;1.50;;;;;;;5.69;100.00;98519.69;4983664;28;20064;-86
2021/12/09 02:53:49;;;;;;;5.78;1.90;;;;;;;5.73;100.00;98539.38;4997245;28;20050;-86
2021/12/09 02:56:19;;;;;;;5.93;1.52;;;;;;;5.81;100.00;98541.59;5015437;28;20053;-86
2021/12/09 02:58:46;;;;;;;9.02;1.70;;;;;;;5.80;100.00;98540.72;4996717;28;20399;-86
2021/12/09 03:01:26;;;;;;;4.10;1.50;;;;;;;5.94;100.00;98540.00;4992057;28;20412;-85
2021/12/09 03:03:58;;;;;;;7.78;2.08;;;;;;;5.63;100.00;98527.78;4985998;28;20623;-85
2021/12/09 03:06:50;;;;;;;5.22;1.60;;;;;;;5.90;100.00;98541.91;4999813;28;20050;-85
2021/12/09 03:09:18;;;;;;;7.50;2.70;;;;;;;5.79;100.00;98533.88;4997567;28;20046;-85
2021/12/09 03:11:53;;;;;;;5.25;1.50;;;;;;;5.70;100.00;98534.34;4992018;28;20064;-85
2021/12/09 03:14:22;;;;;;;6.60;1.40;;;;;;;5.70;100.00;98531.72;5014236;28;20048;-85
2021/12/09 03:16:49;;;;;;;9.50;2.00;;;;;;;5.65;100.00;98537.19;5014717;28;20647;-86
2021/12/09 03:19:16;;;;;;;6.03;1.65;;;;;;;5.76;100.00;98561.75;4996696;28;20049;-85
2021/12/09 03:21:46;;;;;;;4.68;1.90;;;;;;;5.69;100.00;98564.66;4985703;28;20058;-85
2021/12/09 03:24:16;;;;;;;4.07;1.65;;;;;;;5.55;100.00;98574.09;4979955;28;20086;-86
2021/12/09 03:26:54;;;;;;;14.13;1.60;;;;;;;5.57;100.00;98574.84;4997194;28;20054;-86
2021/12/09 03:29:23;;;;;;;6.60;1.52;;;;;;;5.71;100.00;98595.75;4997373;28;20444;-86
2021/12/09 03:31:52;;;;;;;8.02;1.80;;;;;;;5.58;100.00;98600.75;4987872;28;20052;-86
2021/12/09 03:34:20;;;;;;;5.38;1.70;;;;;;;5.51;100.00;98600.19;5013648;28;20052;-86
2021/12/09 03:36:50;;;;;;;6.72;2.03;;;;;;;5.49;100.00;98602.03;4995937;28;20042;-86
2021/12/09 03:39:20;;;;;;;6.75;1.95;;;;;;;5.47;100.00;98608.22;5007500;28;20050;-86
2021/12/09 03:41:51;;;;;;;4.65;1.40;;;;;;;5.33;100.00;98603.75;5004176;28;20050;-86
2021/12/09 03:44:18;;;;;;;8.10;1.67;;;;;;;5.14;100.00;98604.63;4985887;28;20050;-85
2021/12/09 03:46:47;;;;;;;5.65;1.70;;;;;;;5.13;100.00;98620.28;4996815;28;20058;-86
2021/12/09 03:49:14;;;;;;;8.18;2.00;;;;;;;5.27;100.00;98638.59;4996351;28;20045;-86
2021/12/09 03:51:41;;;;;;;8.98;1.65;;;;;;;5.05;100.00;98648.38;4992696;28;20068;-85
2021/12/09 03:54:10;;;;;;;12.40;1.95;;;;;;;5.02;100.00;98656.28;4996702;28;20055;-85
2021/12/09 03:56:37;;;;;;;7.18;1.40;;;;;;;5.08;100.00;98667.22;4996885;28;20444;-85
2021/12/09 03:59:06;;;;;;;6.13;1.75;;;;;;;5.01;100.00;98655.44;5013681;28;20042;-85
2021/12/09 04:01:34;;;;;;;10.60;1.70;;;;;;;4.93;100.00;98676.53;4993403;28;20068;-86
2021/12/09 04:04:01;;;;;;;10.00;1.75;;;;;;;4.77;100.00;98646.25;4989138;28;20488;-85
2021/12/09 04:06:29;;;;;;;5.40;1.85;;;;;;;5.16;100.00;98676.38;4996704;28;20049;-86
2021/12/09 04:08:57;;;;;;;11.40;2.63;;;;;;;5.11;100.00;98682.59;4997118;28;20141;-86
2021/12/09 04:11:24;;;;;;;9.07;2.47;;;;;;;4.94;100.00;98667.03;4988466;28;20046;-86
2021/12/09 04:13:51;;;;;;;6.72;1.90;;;;;;;5.04;100.00;98689.00;4986415;28;20056;-86
2021/12/09 04:16:18;;;;;;;14.38;2.35;;;;;;;4.89;100.00;98689.75;4996192;28;20505;-86
2021/12/09 04:18:45;;;;;;;14.48;2.22;;;;;;;4.93;100.00;98680.91;4991947;28;20476;-86
2021/12/09 04:21:12;;;;;;;8.98;1.90;;;;;;;5.22;100.00;98696.81;4994867;28;20050;-86
2021/12/09 04:23:40;;;;;;;10.88;2.17;;;;;;;5.22;100.00;98702.00;5013409;28;20053;-85
2021/12/09 04:26:07;;;;;;;7.15;1.80;;;;;;;5.07;100.00;98667.28;4996108;28;20503;-85
2021/12/09 04:28:36;;;;;;;6.55;2.00;;;;;;;5.30;100.00;98703.31;5013468;28;20052;-85
2021/12/09 04:31:04;;;;;;;4.53;1.98;;;;;;;5.43;100.00;98718.31;5007011;28;20050;-87
2021/12/09 04:33:32;;;;;;;7.22;1.90;;;;;;;5.48;100.00;98726.72;4994253;28;20050;-86
2021/12/09 04:35:59;;;;;;;10.02;2.00;;;;;;;5.37;100.00;98716.03;5013513;28;20050;-85
2021/12/09 04:38:26;;;;;;;5.80;1.92;;;;;;;5.49;100.00;98728.41;4994455;28;20042;-86
2021/12/09 04:40:53;;;;;;;4.22;1.27;;;;;;;5.53;100.00;98739.47;5006493;28;20061;-86
2021/12/09 04:43:20;;;;;;;7.65;1.50;;;;;;;5.37;100.00;98729.00;4995634;28;20050;-86
2021/12/09 04:45:47;;;;;;;7.25;1.63;;;;;;;5.23;100.00;98730.47;4996148;28;20053;-85
2021/12/09 04:48:14;;;;;;;3.70;1.38;;;;;;;5.33;100.00;98729.13;5011974;28;20049;-85
2021/12/09 04:50:42;;;;;;;6.03;1.45;;;;;;;5.41;100.00;98744.31;4994894;28;20060;-86
2021/12/09 04:53:10;;;;;;;7.20;2.03;;;;;;;5.34;100.00;98740.34;4991405;28;20058;-86
2021/12/09 04:55:37;;;;;;;5.25;1.98;;;;;;;5.46;100.00;98744.13;4995116;28;20058;-86
2021/12/09 04:58:07;;;;;;;6.90;1.75;;;;;;;5.21;100.00;98745.28;4995041;28;20419;-86
2021/12/09 05:00:38;;;;;;;5.22;1.83;;;;;;;5.27;100.00;98723.38;4994794;28;20052;-86
2021/12/09 05:03:09;;;;;;;6.70;1.38;;;;;;;5.46;100.00;98736.31;4984679;28;20141;-85
2021/12/09 05:05:46;;;;;;;6.45;1.85;;;;;;;5.12;100.00;98746.56;4996092;28;20049;-86
2021/12/09 05:08:20;;;;;;;6.35;1.80;;;;;;;5.14;100.00;98744.72;4996430;28;20046;-88
2021/12/09 05:11:01;;;;;;;9.73;1.80;;;;;;;5.16;100.00;98736.88;4994609;28;20041;-86
2021/12/09 05:13:30;;;;;;;7.80;2.38;;;;;;;5.08;100.00;98729.47;4975167;28;20058;-86
2021/12/09 05:15:58;;;;;;;6.60;1.80;;;;;;;5.37;100.00;98740.22;4998403;28;20050;-86
2021/12/09 05:18:27;;;;;;;7.80;1.85;;;;;;;5.32;100.00;98750.78;5012425;28;20076;-86
2021/12/09 05:20:54;;;;;;;9.00;2.28;;;;;;;5.57;100.00;98748.78;5009308;28;20382;-86
2021/12/09 05:23:22;;;;;;;8.30;1.77;;;;;;;5.54;100.00;98738.53;4994841;28;20045;-86
2021/12/09 05:25:49;;;;;;;4.88;1.50;;;;;;;5.53;100.00;98736.88;4975609;28;20063;-86
2021/12/09 05:28:17;;;;;;;11.07;2.15;;;;;;;5.32;100.00;98721.41;4977877;28;20543;-86
2021/12/09 05:33:32;;;;;;;5.47;1.55;;;;;;;5.41;100.00;98713.19;4992669;28;20050;-86
2021/12/09 05:35:59;;;;;;;11.32;2.33;;;;;;;5.18;100.00;98696.13;5009056;28;20058;-87
2021/12/09 05:38:26;;;;;;;7.45;1.90;;;;;;;4.92;100.00;98684.41;4994693;28;20049;-86
2021/12/09 05:40:53;;;;;;;7.60;1.77;;;;;;;5.18;100.00;98724.66;4991468;28;20050;-87
2021/12/09 05:43:20;;;;;;;7.53;1.83;;;;;;;5.12;100.00;98706.81;5003661;28;20132;-86
2021/12/09 05:45:48;;;;;;;6.40;1.77;;;;;;;5.44;100.00;98751.97;5012362;28;20129;-87
2021/12/09 05:48:16;;;;;;;5.82;1.50;;;;;;;5.48;100.00;98748.31;5012002;28;20088;-86
2021/12/09 05:50:44;;;;;;;6.13;1.77;;;;;;;5.17;100.00;98737.72;4994410;28;20389;-86
2021/12/09 05:53:13;;;;;;;7.75;1.50;;;;;;;5.54;100.00;98759.31;4978865;28;20056;-87
2021/12/09 05:55:44;;;;;;;13.60;4.60;;;;;;;5.54;100.00;98767.09;5012220;28;20114;-86
2021/12/09 05:58:14;;;;;;;6.47;1.52;;;;;;;5.33;100.00;98749.91;4993844;28;20054;-87
2021/12/09 06:00:47;;;;;;;12.13;1.65;;;;;;;5.32;100.00;98745.59;4997184;28;20184;-86
2021/12/09 06:03:15;;;;;;;10.02;2.33;;;;;;;5.58;100.00;98760.84;4993503;28;20057;-87
2021/12/09 06:05:42;;;;;;;4.65;1.83;;;;;;;5.71;100.00;98772.31;4999199;28;20057;-87
2021/12/09 06:08:09;;;;;;;5.10;1.55;;;;;;;5.54;100.00;98751.53;4984929;28;20084;-87
2021/12/09 06:10:36;;;;;;;9.43;1.60;;;;;;;5.61;100.00;98771.06;4998078;28;20546;-86
2021/12/09 06:13:04;;;;;;;7.78;1.85;;;;;;;5.40;100.00;98747.84;4989106;28;20064;-87
2021/12/09 06:15:32;;;;;;;7.53;1.90;;;;;;;5.58;100.00;98771.22;4998682;28;20045;-86
2021/12/09 06:17:58;;;;;;;6.80;1.50;;;;;;;5.70;100.00;98765.41;4995376;28;20554;-86
2021/12/09 06:20:26;;;;;;;5.60;1.48;;;;;;;5.65;100.00;98767.44;4998381;28;20045;-86
2021/12/09 06:22:53;;;;;;;6.22;1.52;;;;;;;5.51;100.00;98770.69;4994771;28;20077;-87
2021/12/09 06:25:20;;;;;;;6.00;1.50;;;;;;;5.56;100.00;98768.72;5015760;28;20050;-87
2021/12/09 06:27:49;;;;;;;6.22;1.52;;;;;;;5.45;100.00;98768.38;4998662;28;20056;-87
2021/12/09 06:30:18;;;;;;;5.47;1.50;;;;;;;5.28;100.00;98753.63;4998824;28;20048;-87
2021/12/09 06:32:45;;;;;;;4.78;1.58;;;;;;;5.62;100.00;98763.22;5009910;28;20049;-87
2021/12/09 06:35:13;;;;;;;6.03;1.42;;;;;;;5.70;100.00;98770.63;5018057;28;20526;-87
2021/12/09 06:37:44;;;;;;;3.80;1.67;;;;;;;5.54;100.00;98756.72;4997927;28;20427;-87
2021/12/09 06:40:14;;;;;;;4.60;1.42;;;;;;;5.65;100.00;98768.25;4997524;28;20060;-87
2021/12/09 06:42:43;;;;;;;4.55;1.30;;;;;;;5.50;100.00;98749.06;4990366;28;20480;-87
2021/12/09 06:45:12;;;;;;;4.55;1.40;;;;;;;5.49;100.00;98760.38;5015006;28;20060;-86
2021/12/09 06:47:39;;;;;;;3.80;1.30;;;;;;;5.51;100.00;98768.09;4997918;28;20057;-87
2021/12/09 06:50:08;;;;;;;4.90;1.35;;;;;;;5.12;100.00;98751.75;4997817;28;20132;-87
2021/12/09 06:52:36;;;;;;;3.85;1.35;;;;;;;5.12;100.00;98775.09;4997099;28;20389;-87
2021/12/09 06:55:05;;;;;;;8.98;1.50;;;;;;;4.82;100.00;98720.31;4996568;28;20045;-87
2021/12/09 06:57:32;;;;;;;4.70;1.35;;;;;;;5.08;100.00;98754.53;4989366;28;20047;-87
2021/12/09 06:59:59;;;;;;;2.60;1.30;;;;;;;4.95;100.00;98751.69;4987874;28;20046;-87
2021/12/09 07:02:25;;;;;;;3.83;1.30;;;;;;;5.06;100.00;98757.22;4993194;28;20054;-87
2021/12/09 07:04:52;;;;;;;4.88;1.27;;;;;;;4.92;100.00;98759.59;4986569;28;20050;-88
2021/12/09 07:07:19;;;;;;;5.13;1.38;;;;;;;4.87;100.00;98774.53;5014423;28;20049;-88
2021/12/09 07:09:46;;;;;;;2.75;1.20;;;;;;;4.68;100.00;98777.97;4997625;28;20041;-87
2021/12/09 07:12:13;;;;;;;3.50;1.17;;;;;;;4.70;100.00;98776.13;4984506;28;20053;-86
2021/12/09 07:14:42;;;;;;;4.18;1.50;;;;;;;4.86;100.00;98778.88;4978808;28;20055;-86
2021/12/09 07:17:10;;;;;;;5.03;1.42;;;;;;;4.62;100.00;98754.06;4992188;28;20780;-87
2021/12/09 07:19:38;;;;;;;11.02;2.65;;;;;;;4.65;100.00;98782.44;4995922;28;20470;-87
2021/12/09 07:22:05;;;;;;;4.22;1.50;;;;;;;4.56;100.00;98778.50;4986408;28;20046;-87
2021/12/09 07:24:32;;;;;;;5.18;1.42;;;;;;;4.44;100.00;98785.06;4988939;28;20060;-87
2021/12/09 07:26:59;;;;;;;4.40;1.38;;;;;;;4.50;100.00;98791.75;4990573;28;20046;-87
2021/12/09 07:29:27;;;;;;;6.75;1.70;;;;;;;4.62;100.00;98793.81;4993149;28;20484;-86
2021/12/09 07:31:54;;;;;;;5.45;1.55;;;;;;;4.61;100.00;98810.25;4991831;28;20050;-88
2021/12/09 07:34:21;;;;;;;4.68;1.80;;;;;;;4.54;100.00;98798.47;4989454;28;20141;-87
2021/12/09 07:36:48;;;;;;;3.83;1.70;;;;;;;4.53;100.00;98791.59;4997254;28;20050;-87
2021/12/09 07:39:15;;;;;;;4.63;1.70;;;;;;;4.37;100.00;98800.06;4997163;28;20054;-89
2021/12/09 07:41:42;;;;;;;5.05;1.38;;;;;;;4.46;100.00;98801.41;4995746;28;20054;-88
2021/12/09 07:44:10;;;;;;;4.18;1.40;;;;;;;4.48;100.00;98809.09;5002205;28;20061;-87
2021/12/09 07:46:37;;;;;;;4.97;1.40;;;;;;;4.47;100.00;98797.91;4997178;28;20057;-87
2021/12/09 07:49:06;;;;;;;6.82;1.55;;;;;;;4.38;100.00;98790.53;4996388;28;20044;-88
2021/12/09 07:51:33;;;;;;;4.20;1.40;;;;;;;4.53;100.00;98808.00;4989939;28;20148;-88
2021/12/09 07:54:01;;;;;;;4.32;1.40;;;;;;;4.41;100.00;98803.34;4978345;28;20058;-88
2021/12/09 07:56:28;;;;;;;3.67;1.25;;;;;;;4.29;100.00;98802.13;5007204;28;20057;-87
2021/12/09 07:58:55;;;;;;;4.18;1.52;;;;;;;4.27;100.00;98800.53;4995984;28;20042;-88
2021/12/09 08:01:21;;;;;;;3.55;1.35;;;;;;;4.25;100.00;98805.75;4990081;28;20129;-87
2021/12/09 08:03:49;;;;;;;3.17;1.30;;;;;;;4.41;100.00;98821.50;4988369;28;20096;-86
2021/12/09 08:06:16;;;;;;;2.72;1.30;;;;;;;4.27;100.00;98793.59;4997981;28;20073;-88
2021/12/09 08:08:43;;;;;;;3.38;1.27;;;;;;;4.34;100.00;98795.00;4996543;28;20056;-87
2021/12/09 08:11:10;;;;;;;4.65;1.38;;;;;;;4.47;100.00;98830.75;4991433;28;20054;-85
2021/12/09 08:13:37;;;;;;;6.15;1.80;;;;;;;3.92;100.00;98754.47;4997852;28;20117;-88
2021/12/09 08:16:04;;;;;;;3.42;1.60;;;;;;;4.25;100.00;98794.53;4995893;28;20085;-88
2021/12/09 08:18:43;;;;;;;2.95;1.30;;;;;;;4.21;100.00;98806.78;4996392;28;20082;-88
2021/12/09 08:21:10;;;;;;;4.97;1.45;;;;;;;3.98;100.00;98777.53;4989895;28;20121;-88
2021/12/09 08:23:36;;;;;;;4.15;1.20;;;;;;;4.30;100.00;98834.03;4994094;28;20050;-88
2021/12/09 08:26:03;;;;;;;2.33;1.20;;;;;;;4.12;100.00;98802.00;4979911;28;20061;-88
2021/12/09 08:28:30;;;;;;;4.68;1.40;;;;;;;3.95;100.00;98779.41;4998819;28;20081;-87
2021/12/09 08:30:57;;;;;;;4.30;1.30;;;;;;;4.28;100.00;98826.34;4994221;28;20052;-88
2021/12/09 08:33:25;;;;;;;4.72;1.42;;;;;;;4.30;100.00;98842.69;4983381;28;20050;-88
2021/12/09 08:35:53;;;;;;;3.55;1.40;;;;;;;4.31;100.00;98835.75;4996401;28;20133;-89
2021/12/09 08:38:20;;;;;;;7.63;1.40;;;;;;;4.21;100.00;98832.69;4995618;28;20046;-89
2021/12/09 08:40:47;;;;;;;6.10;1.50;;;;;;;4.19;100.00;98837.94;4992655;28;20043;-88
2021/12/09 08:43:15;;;;;;;4.00;1.30;;;;;;;4.22;100.00;98826.59;4976131;28;20076;-88
2021/12/09 08:45:43;;;;;;;2.63;1.20;;;;;;;4.41;100.00;98837.03;4994544;28;20125;-87
2021/12/09 08:48:10;;;;;;;4.15;1.73;;;;;;;4.29;100.00;98827.19;4976316;28;20061;-88
2021/12/09 08:50:38;;;;;;;5.38;1.50;;;;;;;4.34;100.00;98833.03;4987806;28;20500;-88
2021/12/09 08:53:09;;;;;;;7.20;1.42;;;;;;;4.36;100.00;98844.16;4982970;28;20430;-88
2021/12/09 08:55:37;;;;;;;4.43;1.52;;;;;;;4.32;100.00;98829.63;4992354;28;20435;-88
2021/12/09 08:58:04;;;;;;;5.65;1.40;;;;;;;4.23;100.00;98833.47;4987678;28;20064;-88
2021/12/09 09:00:33;;;;;;;4.30;1.40;;;;;;;4.27;100.00;98841.97;4994062;28;20054;-88
2021/12/09 09:03:01;;;;;;;3.58;1.50;;;;;;;4.30;100.00;98841.81;5003334;28;20499;-88
2021/12/09 09:05:30;;;;;;;4.53;1.40;;;;;;;4.34;100.00;98857.19;4995422;28;20412;-87
2021/12/09 09:07:57;;;;;;;6.38;1.40;;;;;;;4.36;100.00;98841.56;4995050;28;20520;-87
2021/12/09 09:10:27;;;;;;;7.22;1.75;;;;;;;4.43;100.00;98843.00;4994890;28;20049;-87
2021/12/09 09:12:54;;;;;;;3.05;1.25;;;;;;;4.24;100.00;98842.94;4982367;28;20132;-87
2021/12/09 09:15:24;;;;;;;3.20;1.23;;;;;;;4.39;100.00;98846.59;4993194;28;20057;-88
2021/12/09 09:17:51;;;;;;;7.05;1.55;;;;;;;4.34;100.00;98858.94;4979465;28;20054;-87
2021/12/09 09:20:22;;;;;;;5.18;1.40;;;;;;;4.26;100.00;98848.03;4991292;28;20075;-87
2021/12/09 09:22:49;;;;;;;3.05;1.30;;;;;;;4.40;100.00;98850.06;4982353;28;20056;-87
2021/12/09 09:25:22;;;;;;;3.28;1.30;;;;;;;4.49;100.00;98839.28;4991774;28;20229;-87
2021/12/09 09:27:49;;;;;;;5.40;1.60;;;;;;;4.48;100.00;98837.59;4986939;28;20502;-87
2021/12/09 09:30:18;;;;;;;2.97;1.30;;;;;;;4.43;100.00;98834.38;4987821;28;20042;-87
2021/12/09 09:32:49;;;;;;;4.63;1.80;;;;;;;4.47;100.00;98839.34;4980530;28;20064;-86
2021/12/09 09:35:17;;;;;;;3.90;1.20;;;;;;;4.33;100.00;98814.03;4987520;28;20045;-85
2021/12/09 09:37:46;;;;;;;5.05;1.58;;;;;;;4.52;100.00;98831.41;4984912;28;20124;-86
2021/12/09 09:40:16;;;;;;;2.83;1.40;;;;;;;4.61;100.00;98845.72;4995014;28;20053;-86
2021/12/09 09:45:13;;;;;;;16.35;2.30;;;;;;;4.61;100.00;98832.75;5012187;28;20516;-86
2021/12/09 09:47:40;;;;;;;9.93;2.38;;;;;;;4.59;100.00;98824.22;4995154;28;20088;-86
2021/12/09 09:50:09;;;;;;;11.02;2.10;;;;;;;4.62;100.00;98824.06;5011264;28;20060;-85
2021/12/09 09:52:36;;;;;;;5.72;1.38;;;;;;;4.77;100.00;98825.97;4993571;28;20456;-85
2021/12/09 09:55:08;;;;;;;4.72;1.40;;;;;;;4.64;100.00;98810.13;4975019;28;20492;-86
2021/12/09 09:57:36;;;;;;;4.35;1.40;;;;;;;4.64;100.00;98812.72;4975238;28;20046;-86
2021/12/09 10:00:09;;;;;;;3.80;1.40;;;;;;;4.85;100.00;98836.00;4974973;28;20372;-86
2021/12/09 10:02:37;;;;;;;6.18;1.83;;;;;;;4.76;100.00;98824.28;4991749;28;20474;-87
2021/12/09 10:05:06;;;;;;;5.25;1.20;;;;;;;4.82;100.00;98820.59;4994949;28;20149;-87
2021/12/09 10:07:34;;;;;;;5.15;2.60;;;;;;;4.75;100.00;98826.03;4993873;28;20080;-86
2021/12/09 10:10:04;;;;;;;8.80;1.83;;;;;;;4.67;100.00;98822.94;5010038;28;20081;-85
2021/12/09 10:12:31;;;;;;;3.00;1.40;;;;;;;4.73;100.00;98814.91;4986504;28;20054;-86
2021/12/09 10:14:58;;;;;;;5.80;2.08;;;;;;;4.49;100.00;98809.03;4985242;28;20045;-87
2021/12/09 10:17:26;;;;;;;8.32;1.67;;;;;;;4.55;100.00;98826.06;4978373;28;20051;-87
2021/12/09 10:20:09;;;;;;;6.60;1.70;;;;;;;4.63;100.00;98825.75;4983251;28;20057;-88
2021/12/09 10:22:37;;;;;;;3.38;1.40;;;;;;;4.79;100.00;98826.75;4988530;28;20046;-87
2021/12/09 10:25:20;;;;;;;6.93;2.10;;;;;;;4.71;100.00;98815.84;4981574;28;20415;-87
2021/12/09 10:28:04;;;;;;;3.53;1.50;;;;;;;4.81;100.00;98819.72;5006871;28;20045;-87
2021/12/09 10:30:36;;;;;;;5.45;1.83;;;;;;;4.74;100.00;98815.72;4988773;28;20129;-87
2021/12/09 10:33:03;;;;;;;6.40;1.75;;;;;;;4.74;100.00;98819.16;4998994;28;20515;-87
2021/12/09 10:35:30;;;;;;;4.43;1.33;;;;;;;4.86;100.00;98815.19;4990170;28;20476;-87
2021/12/09 10:38:01;;;;;;;5.15;2.22;;;;;;;4.72;100.00;98808.03;4990606;28;20489;-87
2021/12/09 10:40:30;;;;;;;3.65;1.40;;;;;;;4.92;100.00;98820.13;4974435;28;20047;-86
2021/12/09 10:43:03;;;;;;;6.22;1.60;;;;;;;4.86;100.00;98817.78;4981235;28;20058;-88
2021/12/09 10:45:37;;;;;;;4.32;1.60;;;;;;;4.85;100.00;98813.53;4994617;28;20046;-87
2021/12/09 10:48:25;;;;;;;5.90;1.63;;;;;;;4.96;100.00;98820.81;5006543;28;20054;-87
2021/12/09 10:51:12;;;;;;;6.55;1.75;;;;;;;4.88;100.00;98795.22;4985010;28;20074;-86
2021/12/09 10:53:47;;;;;;;7.85;1.80;;;;;;;5.01;100.00;98803.28;4996833;28;20060;-86
2021/12/09 10:56:29;;;;;;;5.95;1.92;;;;;;;5.10;100.00;98815.00;4993918;28;20054;-87
2021/12/09 10:58:57;;;;;;;5.05;2.00;;;;;;;5.12;100.00;98795.84;5003109;28;20404;-87
2021/12/09 11:01:25;;;;;;;5.13;1.63;;;;;;;5.17;100.00;98792.19;4977085;28;20046;-87
2021/12/09 11:04:00;;;;;;;6.22;1.90;;;;;;;5.28;100.00;98782.16;4985937;28;20452;-87
2021/12/09 11:06:35;;;;;;;6.40;1.60;;;;;;;5.48;100.00;98797.63;5002023;28;20056;-87
2021/12/09 11:09:07;;;;;;;3.65;1.50;;;;;;;5.45;100.00;98770.97;4996368;28;20054;-87
2021/12/09 11:11:42;;;;;;;7.10;2.05;;;;;;;5.57;100.00;98788.56;5003485;28;20404;-87
2021/12/09 11:14:14;;;;;;;6.88;2.33;;;;;;;5.15;100.00;98784.47;4985162;28;20488;-87
2021/12/09 11:16:50;;;;;;;9.63;3.03;;;;;;;4.97;100.00;98790.53;4983245;28;20053;-87
2021/12/09 11:19:25;;;;;;;9.23;2.83;;;;;;;4.90;100.00;98790.78;4986309;28;20054;-87
2021/12/09 11:22:00;;;;;;;11.00;2.90;;;;;;;4.76;100.00;98767.25;4982630;28;20496;-87
2021/12/09 11:24:36;;;;;;;10.05;3.25;;;;;;;5.09;100.00;98793.38;4978615;28;20050;-87
2021/12/09 11:27:11;;;;;;;8.02;2.80;;;;;;;4.93;100.00;98789.81;4977851;28;20046;-87
2021/12/09 11:29:43;;;;;;;10.27;3.42;;;;;;;5.02;100.00;98802.38;4993514;28;20050;-87
2021/12/09 11:34:54;;;;;;;12.20;3.63;;;;;;;5.25;100.00;98796.13;4998590;28;20058;-86
2021/12/09 11:40:12;;;;;;;10.02;3.78;;;;;;;5.05;100.00;98746.94;5013309;28;20045;-85
2021/12/09 11:45:14;;;;;;;10.65;3.35;;;;;;;5.28;100.00;98767.44;4995535;28;20047;-86
2021/12/09 11:47:43;;;;;;;13.02;5.00;;;;;;;5.14;100.00;98773.28;4996532;28;20503;-86
2021/12/09 11:50:27;;;;;;;18.95;6.00;;;;;;;4.93;100.00;98769.91;5005374;28;20050;-87
2021/12/09 11:52:57;;;;;;;19.60;9.50;;;;;;;4.63;100.00;98756.59;4993223;28;20432;-86
2021/12/09 11:55:35;;;;;;;14.75;6.45;;;;;;;4.64;100.00;98773.84;4979953;28;20050;-86